sensor_id;sensor_type;location;lat;lon;timestamp;P1;durP1;ratioP1;P2;durP2;ratioP2
77598;SDS011;66758;52.078;5.070;2023-02-15T00:02:24;42.65;;;24.27;;
77598;SDS011;66758;52.078;5.070;2023-02-15T00:04:50;40.58;;;22.55;;
77598;SDS011;66758;52.078;5.070;2023-02-15T00:07:16;37.70;;;20.70;;
77598;SDS011;66758;52.078;5.070;2023-02-15T00:09:45;41.75;;;21.48;;
77598;SDS011;66758;52.078;5.070;2023-02-15T00:12:11;37.97;;;21.10;;
77598;SDS011;66758;52.078;5.070;2023-02-15T00:14:37;43.38;;;22.40;;
77598;SDS011;66758;52.078;5.070;2023-02-15T00:17:02;43.40;;;22.37;;
77598;SDS011;66758;52.078;5.070;2023-02-15T00:19:28;45.67;;;23.80;;
77598;SDS011;66758;52.078;5.070;2023-02-15T00:21:53;44.77;;;24.43;;
77598;SDS011;66758;52.078;5.070;2023-02-15T00:24:19;44.67;;;23.17;;
77598;SDS011;66758;52.078;5.070;2023-02-15T00:26:45;39.88;;;21.58;;
77598;SDS011;66758;52.078;5.070;2023-02-15T00:29:12;45.50;;;22.02;;
77598;SDS011;66758;52.078;5.070;2023-02-15T00:31:39;48.55;;;24.48;;
77598;SDS011;66758;52.078;5.070;2023-02-15T00:34:06;45.63;;;23.30;;
77598;SDS011;66758;52.078;5.070;2023-02-15T00:36:35;48.50;;;24.52;;
77598;SDS011;66758;52.078;5.070;2023-02-15T00:39:01;48.28;;;24.70;;
77598;SDS011;66758;52.078;5.070;2023-02-15T00:41:26;46.47;;;24.73;;
77598;SDS011;66758;52.078;5.070;2023-02-15T00:43:51;50.23;;;25.63;;
77598;SDS011;66758;52.078;5.070;2023-02-15T00:46:17;48.63;;;25.27;;
77598;SDS011;66758;52.078;5.070;2023-02-15T00:48:43;50.10;;;26.35;;
77598;SDS011;66758;52.078;5.070;2023-02-15T00:51:08;52.17;;;25.20;;
77598;SDS011;66758;52.078;5.070;2023-02-15T00:53:34;50.20;;;25.80;;
77598;SDS011;66758;52.078;5.070;2023-02-15T00:55:59;48.53;;;25.60;;
77598;SDS011;66758;52.078;5.070;2023-02-15T00:58:25;51.17;;;25.50;;
77598;SDS011;66758;52.078;5.070;2023-02-15T01:00:51;48.17;;;24.98;;
77598;SDS011;66758;52.078;5.070;2023-02-15T01:03:18;46.17;;;25.73;;
77598;SDS011;66758;52.078;5.070;2023-02-15T01:05:44;57.08;;;27.63;;
77598;SDS011;66758;52.078;5.070;2023-02-15T01:08:11;48.00;;;23.87;;
77598;SDS011;66758;52.078;5.070;2023-02-15T01:10:37;46.42;;;24.00;;
77598;SDS011;66758;52.078;5.070;2023-02-15T01:13:03;54.25;;;25.55;;
77598;SDS011;66758;52.078;5.070;2023-02-15T01:15:28;44.30;;;23.67;;
77598;SDS011;66758;52.078;5.070;2023-02-15T01:17:54;50.53;;;25.97;;
77598;SDS011;66758;52.078;5.070;2023-02-15T01:20:20;44.93;;;24.30;;
77598;SDS011;66758;52.078;5.070;2023-02-15T01:22:47;49.10;;;23.37;;
77598;SDS011;66758;52.078;5.070;2023-02-15T01:25:18;42.90;;;22.42;;
77598;SDS011;66758;52.078;5.070;2023-02-15T01:27:45;42.83;;;20.67;;
77598;SDS011;66758;52.078;5.070;2023-02-15T01:30:11;43.83;;;21.98;;
77598;SDS011;66758;52.078;5.070;2023-02-15T01:32:38;46.47;;;22.10;;
77598;SDS011;66758;52.078;5.070;2023-02-15T01:35:03;42.60;;;22.25;;
77598;SDS011;66758;52.078;5.070;2023-02-15T01:37:30;46.17;;;21.87;;
77598;SDS011;66758;52.078;5.070;2023-02-15T01:39:56;44.67;;;21.83;;
77598;SDS011;66758;52.078;5.070;2023-02-15T01:42:22;43.30;;;20.65;;
77598;SDS011;66758;52.078;5.070;2023-02-15T01:47:26;43.13;;;21.00;;
77598;SDS011;66758;52.078;5.070;2023-02-15T01:52:30;41.80;;;21.27;;
77598;SDS011;66758;52.078;5.070;2023-02-15T01:54:56;42.40;;;20.83;;
77598;SDS011;66758;52.078;5.070;2023-02-15T01:57:22;41.97;;;20.50;;
77598;SDS011;66758;52.078;5.070;2023-02-15T01:59:51;46.22;;;22.35;;
77598;SDS011;66758;52.078;5.070;2023-02-15T02:02:20;45.08;;;22.40;;
77598;SDS011;66758;52.078;5.070;2023-02-15T02:04:50;49.05;;;22.70;;
77598;SDS011;66758;52.078;5.070;2023-02-15T02:07:19;41.47;;;21.30;;
77598;SDS011;66758;52.078;5.070;2023-02-15T02:09:46;43.92;;;21.83;;
77598;SDS011;66758;52.078;5.070;2023-02-15T02:12:13;41.70;;;21.77;;
77598;SDS011;66758;52.078;5.070;2023-02-15T02:14:40;41.83;;;21.63;;
77598;SDS011;66758;52.078;5.070;2023-02-15T02:27:50;48.63;;;23.27;;
77598;SDS011;66758;52.078;5.070;2023-02-15T02:33:39;49.33;;;22.67;;
77598;SDS011;66758;52.078;5.070;2023-02-15T02:41:56;41.97;;;21.52;;
77598;SDS011;66758;52.078;5.070;2023-02-15T02:44:32;43.60;;;21.13;;
77598;SDS011;66758;52.078;5.070;2023-02-15T02:49:30;43.42;;;20.52;;
77598;SDS011;66758;52.078;5.070;2023-02-15T02:52:03;45.53;;;23.55;;
77598;SDS011;66758;52.078;5.070;2023-02-15T02:54:30;38.30;;;20.58;;
77598;SDS011;66758;52.078;5.070;2023-02-15T02:56:59;47.60;;;21.58;;
77598;SDS011;66758;52.078;5.070;2023-02-15T02:59:33;43.37;;;20.73;;
77598;SDS011;66758;52.078;5.070;2023-02-15T03:02:37;43.03;;;20.90;;
77598;SDS011;66758;52.078;5.070;2023-02-15T03:05:01;40.22;;;20.17;;
77598;SDS011;66758;52.078;5.070;2023-02-15T03:07:31;40.20;;;20.40;;
77598;SDS011;66758;52.078;5.070;2023-02-15T03:09:59;43.65;;;20.70;;
77598;SDS011;66758;52.078;5.070;2023-02-15T03:12:34;41.00;;;20.90;;
77598;SDS011;66758;52.078;5.070;2023-02-15T03:17:33;50.30;;;21.42;;
77598;SDS011;66758;52.078;5.070;2023-02-15T03:20:06;40.85;;;20.27;;
77598;SDS011;66758;52.078;5.070;2023-02-15T03:22:50;46.20;;;22.15;;
77598;SDS011;66758;52.078;5.070;2023-02-15T03:25:19;44.90;;;20.07;;
77598;SDS011;66758;52.078;5.070;2023-02-15T03:27:51;49.92;;;22.27;;
77598;SDS011;66758;52.078;5.070;2023-02-15T03:30:20;40.40;;;20.88;;
77598;SDS011;66758;52.078;5.070;2023-02-15T03:32:47;42.15;;;20.92;;
77598;SDS011;66758;52.078;5.070;2023-02-15T03:35:15;41.05;;;21.23;;
77598;SDS011;66758;52.078;5.070;2023-02-15T03:37:41;41.80;;;21.13;;
77598;SDS011;66758;52.078;5.070;2023-02-15T03:40:18;39.97;;;20.17;;
77598;SDS011;66758;52.078;5.070;2023-02-15T03:43:23;44.03;;;21.33;;
77598;SDS011;66758;52.078;5.070;2023-02-15T03:45:52;41.92;;;20.52;;
77598;SDS011;66758;52.078;5.070;2023-02-15T03:48:56;42.07;;;21.17;;
77598;SDS011;66758;52.078;5.070;2023-02-15T03:51:19;47.83;;;21.80;;
77598;SDS011;66758;52.078;5.070;2023-02-15T03:54:00;47.30;;;21.95;;
77598;SDS011;66758;52.078;5.070;2023-02-15T03:56:29;47.80;;;22.40;;
77598;SDS011;66758;52.078;5.070;2023-02-15T03:58:55;44.08;;;21.52;;
77598;SDS011;66758;52.078;5.070;2023-02-15T04:04:28;45.63;;;22.05;;
77598;SDS011;66758;52.078;5.070;2023-02-15T04:07:00;40.65;;;21.00;;
77598;SDS011;66758;52.078;5.070;2023-02-15T04:09:27;49.03;;;23.67;;
77598;SDS011;66758;52.078;5.070;2023-02-15T04:12:11;45.42;;;21.15;;
77598;SDS011;66758;52.078;5.070;2023-02-15T04:14:37;42.07;;;20.40;;
77598;SDS011;66758;52.078;5.070;2023-02-15T04:17:21;45.72;;;21.95;;
77598;SDS011;66758;52.078;5.070;2023-02-15T04:19:47;50.20;;;21.10;;
77598;SDS011;66758;52.078;5.070;2023-02-15T04:22:31;43.67;;;21.33;;
77598;SDS011;66758;52.078;5.070;2023-02-15T04:25:15;50.20;;;21.73;;
77598;SDS011;66758;52.078;5.070;2023-02-15T04:27:42;39.85;;;20.75;;
77598;SDS011;66758;52.078;5.070;2023-02-15T04:30:16;43.87;;;20.13;;
77598;SDS011;66758;52.078;5.070;2023-02-15T04:32:44;46.17;;;21.40;;
77598;SDS011;66758;52.078;5.070;2023-02-15T04:35:10;43.58;;;20.33;;
77598;SDS011;66758;52.078;5.070;2023-02-15T04:37:37;43.30;;;21.92;;
77598;SDS011;66758;52.078;5.070;2023-02-15T04:40:04;44.22;;;21.92;;
77598;SDS011;66758;52.078;5.070;2023-02-15T04:42:31;39.20;;;20.43;;
77598;SDS011;66758;52.078;5.070;2023-02-15T04:44:57;45.53;;;21.25;;
77598;SDS011;66758;52.078;5.070;2023-02-15T04:47:22;47.88;;;22.27;;
77598;SDS011;66758;52.078;5.070;2023-02-15T04:49:48;48.27;;;22.13;;
77598;SDS011;66758;52.078;5.070;2023-02-15T04:52:14;49.50;;;22.27;;
77598;SDS011;66758;52.078;5.070;2023-02-15T04:54:40;47.45;;;22.23;;
77598;SDS011;66758;52.078;5.070;2023-02-15T04:57:06;46.03;;;22.20;;
77598;SDS011;66758;52.078;5.070;2023-02-15T04:59:32;42.10;;;20.48;;
77598;SDS011;66758;52.078;5.070;2023-02-15T05:01:57;42.17;;;21.33;;
77598;SDS011;66758;52.078;5.070;2023-02-15T05:04:23;42.70;;;20.27;;
77598;SDS011;66758;52.078;5.070;2023-02-15T05:06:49;44.63;;;21.40;;
77598;SDS011;66758;52.078;5.070;2023-02-15T05:09:14;40.50;;;20.47;;
77598;SDS011;66758;52.078;5.070;2023-02-15T05:11:40;43.15;;;21.33;;
77598;SDS011;66758;52.078;5.070;2023-02-15T05:14:05;46.30;;;21.90;;
77598;SDS011;66758;52.078;5.070;2023-02-15T05:16:31;43.90;;;20.97;;
77598;SDS011;66758;52.078;5.070;2023-02-15T05:19:00;42.65;;;20.75;;
77598;SDS011;66758;52.078;5.070;2023-02-15T05:21:25;42.53;;;19.60;;
77598;SDS011;66758;52.078;5.070;2023-02-15T05:23:51;42.40;;;19.63;;
77598;SDS011;66758;52.078;5.070;2023-02-15T05:26:18;37.38;;;19.70;;
77598;SDS011;66758;52.078;5.070;2023-02-15T05:29:04;45.40;;;20.23;;
77598;SDS011;66758;52.078;5.070;2023-02-15T05:31:30;44.47;;;20.67;;
77598;SDS011;66758;52.078;5.070;2023-02-15T05:33:56;45.80;;;21.60;;
77598;SDS011;66758;52.078;5.070;2023-02-15T05:36:22;53.63;;;24.08;;
77598;SDS011;66758;52.078;5.070;2023-02-15T05:38:48;49.73;;;23.00;;
77598;SDS011;66758;52.078;5.070;2023-02-15T05:41:14;45.72;;;22.85;;
77598;SDS011;66758;52.078;5.070;2023-02-15T05:43:39;43.27;;;20.77;;
77598;SDS011;66758;52.078;5.070;2023-02-15T05:46:06;42.03;;;19.50;;
77598;SDS011;66758;52.078;5.070;2023-02-15T05:48:33;42.70;;;20.65;;
77598;SDS011;66758;52.078;5.070;2023-02-15T05:51:00;39.13;;;19.00;;
77598;SDS011;66758;52.078;5.070;2023-02-15T05:53:31;39.45;;;18.65;;
77598;SDS011;66758;52.078;5.070;2023-02-15T05:55:58;41.95;;;19.73;;
77598;SDS011;66758;52.078;5.070;2023-02-15T05:58:48;35.92;;;18.35;;
77598;SDS011;66758;52.078;5.070;2023-02-15T06:01:17;42.22;;;19.48;;
77598;SDS011;66758;52.078;5.070;2023-02-15T06:03:44;37.83;;;17.63;;
77598;SDS011;66758;52.078;5.070;2023-02-15T06:06:17;45.92;;;20.15;;
77598;SDS011;66758;52.078;5.070;2023-02-15T06:08:43;37.23;;;18.60;;
77598;SDS011;66758;52.078;5.070;2023-02-15T06:11:08;48.47;;;20.60;;
77598;SDS011;66758;52.078;5.070;2023-02-15T06:13:37;44.17;;;18.92;;
77598;SDS011;66758;52.078;5.070;2023-02-15T06:16:02;40.70;;;19.97;;
77598;SDS011;66758;52.078;5.070;2023-02-15T06:18:28;41.88;;;20.77;;
77598;SDS011;66758;52.078;5.070;2023-02-15T06:20:54;41.20;;;21.27;;
77598;SDS011;66758;52.078;5.070;2023-02-15T06:23:19;40.83;;;18.80;;
77598;SDS011;66758;52.078;5.070;2023-02-15T06:25:45;42.20;;;19.95;;
77598;SDS011;66758;52.078;5.070;2023-02-15T06:28:11;39.00;;;19.17;;
77598;SDS011;66758;52.078;5.070;2023-02-15T06:30:37;40.97;;;20.33;;
77598;SDS011;66758;52.078;5.070;2023-02-15T06:33:02;40.10;;;20.17;;
77598;SDS011;66758;52.078;5.070;2023-02-15T06:35:28;40.17;;;18.00;;
77598;SDS011;66758;52.078;5.070;2023-02-15T06:37:54;34.77;;;18.03;;
77598;SDS011;66758;52.078;5.070;2023-02-15T06:40:19;41.03;;;19.45;;
77598;SDS011;66758;52.078;5.070;2023-02-15T06:42:45;39.60;;;19.53;;
77598;SDS011;66758;52.078;5.070;2023-02-15T06:45:11;38.75;;;19.15;;
77598;SDS011;66758;52.078;5.070;2023-02-15T06:47:36;40.60;;;19.73;;
77598;SDS011;66758;52.078;5.070;2023-02-15T06:50:02;45.85;;;19.50;;
77598;SDS011;66758;52.078;5.070;2023-02-15T06:52:29;45.28;;;20.70;;
77598;SDS011;66758;52.078;5.070;2023-02-15T06:54:55;40.10;;;19.17;;
77598;SDS011;66758;52.078;5.070;2023-02-15T06:57:20;38.43;;;18.57;;
77598;SDS011;66758;52.078;5.070;2023-02-15T06:59:46;44.75;;;21.33;;
77598;SDS011;66758;52.078;5.070;2023-02-15T07:02:11;41.53;;;19.93;;
77598;SDS011;66758;52.078;5.070;2023-02-15T07:04:37;43.10;;;20.42;;
77598;SDS011;66758;52.078;5.070;2023-02-15T07:07:03;46.17;;;20.13;;
77598;SDS011;66758;52.078;5.070;2023-02-15T07:09:29;44.00;;;20.50;;
77598;SDS011;66758;52.078;5.070;2023-02-15T07:11:55;40.45;;;20.27;;
77598;SDS011;66758;52.078;5.070;2023-02-15T07:14:39;40.27;;;20.30;;
77598;SDS011;66758;52.078;5.070;2023-02-15T07:17:05;40.30;;;20.38;;
77598;SDS011;66758;52.078;5.070;2023-02-15T07:19:31;45.90;;;20.23;;
77598;SDS011;66758;52.078;5.070;2023-02-15T07:21:57;41.10;;;20.80;;
77598;SDS011;66758;52.078;5.070;2023-02-15T07:24:22;42.22;;;20.13;;
77598;SDS011;66758;52.078;5.070;2023-02-15T07:26:48;45.33;;;20.83;;
77598;SDS011;66758;52.078;5.070;2023-02-15T07:29:14;41.47;;;21.20;;
77598;SDS011;66758;52.078;5.070;2023-02-15T07:31:40;45.97;;;20.92;;
77598;SDS011;66758;52.078;5.070;2023-02-15T07:34:07;47.33;;;21.83;;
77598;SDS011;66758;52.078;5.070;2023-02-15T07:36:32;47.50;;;21.02;;
77598;SDS011;66758;52.078;5.070;2023-02-15T07:38:58;40.33;;;20.17;;
77598;SDS011;66758;52.078;5.070;2023-02-15T07:41:23;48.60;;;22.13;;
77598;SDS011;66758;52.078;5.070;2023-02-15T07:43:49;43.55;;;20.73;;
77598;SDS011;66758;52.078;5.070;2023-02-15T07:46:15;44.37;;;19.90;;
77598;SDS011;66758;52.078;5.070;2023-02-15T07:48:43;43.40;;;20.42;;
77598;SDS011;66758;52.078;5.070;2023-02-15T07:51:10;42.53;;;21.42;;
77598;SDS011;66758;52.078;5.070;2023-02-15T07:53:37;45.33;;;20.85;;
77598;SDS011;66758;52.078;5.070;2023-02-15T07:56:08;41.83;;;19.23;;
77598;SDS011;66758;52.078;5.070;2023-02-15T07:58:36;52.27;;;22.10;;
77598;SDS011;66758;52.078;5.070;2023-02-15T08:01:36;43.20;;;22.08;;
77598;SDS011;66758;52.078;5.070;2023-02-15T08:04:03;40.45;;;21.08;;
77598;SDS011;66758;52.078;5.070;2023-02-15T08:06:32;47.25;;;22.23;;
77598;SDS011;66758;52.078;5.070;2023-02-15T08:08:59;42.47;;;20.23;;
77598;SDS011;66758;52.078;5.070;2023-02-15T08:11:27;42.30;;;20.97;;
77598;SDS011;66758;52.078;5.070;2023-02-15T08:14:07;46.50;;;21.58;;
77598;SDS011;66758;52.078;5.070;2023-02-15T08:16:45;46.35;;;20.98;;
77598;SDS011;66758;52.078;5.070;2023-02-15T08:21:47;46.58;;;23.13;;
77598;SDS011;66758;52.078;5.070;2023-02-15T08:24:15;44.10;;;22.03;;
77598;SDS011;66758;52.078;5.070;2023-02-15T08:26:42;45.10;;;22.77;;
77598;SDS011;66758;52.078;5.070;2023-02-15T08:29:10;48.08;;;22.10;;
77598;SDS011;66758;52.078;5.070;2023-02-15T08:31:36;44.22;;;22.25;;
77598;SDS011;66758;52.078;5.070;2023-02-15T08:34:03;45.20;;;22.02;;
77598;SDS011;66758;52.078;5.070;2023-02-15T08:36:30;43.03;;;21.90;;
77598;SDS011;66758;52.078;5.070;2023-02-15T08:38:58;44.20;;;20.33;;
77598;SDS011;66758;52.078;5.070;2023-02-15T08:41:26;49.33;;;23.13;;
77598;SDS011;66758;52.078;5.070;2023-02-15T08:43:53;37.47;;;18.55;;
77598;SDS011;66758;52.078;5.070;2023-02-15T08:46:22;40.72;;;21.92;;
77598;SDS011;66758;52.078;5.070;2023-02-15T08:48:49;44.00;;;21.40;;
77598;SDS011;66758;52.078;5.070;2023-02-15T08:51:16;41.10;;;18.65;;
77598;SDS011;66758;52.078;5.070;2023-02-15T08:53:45;41.70;;;21.30;;
77598;SDS011;66758;52.078;5.070;2023-02-15T08:56:16;39.80;;;20.90;;
77598;SDS011;66758;52.078;5.070;2023-02-15T08:58:43;43.10;;;20.20;;
77598;SDS011;66758;52.078;5.070;2023-02-15T09:03:39;44.28;;;22.33;;
77598;SDS011;66758;52.078;5.070;2023-02-15T09:06:07;43.85;;;22.70;;
77598;SDS011;66758;52.078;5.070;2023-02-15T09:08:32;44.92;;;22.35;;
77598;SDS011;66758;52.078;5.070;2023-02-15T09:13:38;40.15;;;21.13;;
77598;SDS011;66758;52.078;5.070;2023-02-15T09:16:06;46.33;;;22.10;;
77598;SDS011;66758;52.078;5.070;2023-02-15T09:18:38;40.67;;;20.73;;
77598;SDS011;66758;52.078;5.070;2023-02-15T09:21:05;38.80;;;20.50;;
77598;SDS011;66758;52.078;5.070;2023-02-15T09:23:43;44.33;;;21.27;;
77598;SDS011;66758;52.078;5.070;2023-02-15T09:26:11;38.55;;;20.60;;
77598;SDS011;66758;52.078;5.070;2023-02-15T09:28:41;41.33;;;22.33;;
77598;SDS011;66758;52.078;5.070;2023-02-15T09:33:54;40.05;;;20.25;;
77598;SDS011;66758;52.078;5.070;2023-02-15T09:36:25;40.40;;;21.60;;
77598;SDS011;66758;52.078;5.070;2023-02-15T09:38:57;41.33;;;21.25;;
77598;SDS011;66758;52.078;5.070;2023-02-15T09:50:54;39.85;;;20.55;;
77598;SDS011;66758;52.078;5.070;2023-02-15T09:53:31;38.70;;;20.45;;
77598;SDS011;66758;52.078;5.070;2023-02-15T09:56:14;35.05;;;19.38;;
77598;SDS011;66758;52.078;5.070;2023-02-15T09:59:02;39.87;;;20.97;;
77598;SDS011;66758;52.078;5.070;2023-02-15T10:04:36;37.38;;;20.25;;
77598;SDS011;66758;52.078;5.070;2023-02-15T10:16:10;39.15;;;21.27;;
77598;SDS011;66758;52.078;5.070;2023-02-15T10:18:45;38.88;;;20.85;;
77598;SDS011;66758;52.078;5.070;2023-02-15T10:28:57;33.97;;;20.10;;
77598;SDS011;66758;52.078;5.070;2023-02-15T10:44:59;34.13;;;21.57;;
77598;SDS011;66758;52.078;5.070;2023-02-15T10:47:31;38.28;;;20.23;;
77598;SDS011;66758;52.078;5.070;2023-02-15T10:50:19;36.42;;;21.65;;
77598;SDS011;66758;52.078;5.070;2023-02-15T10:53:13;37.13;;;20.17;;
77598;SDS011;66758;52.078;5.070;2023-02-15T11:00:55;43.15;;;23.23;;
77598;SDS011;66758;52.078;5.070;2023-02-15T11:06:28;38.58;;;22.05;;
77598;SDS011;66758;52.078;5.070;2023-02-15T11:08:57;41.97;;;24.15;;
77598;SDS011;66758;52.078;5.070;2023-02-15T11:11:27;39.77;;;23.00;;
77598;SDS011;66758;52.078;5.070;2023-02-15T11:13:59;45.40;;;24.08;;
77598;SDS011;66758;52.078;5.070;2023-02-15T11:16:32;40.92;;;22.55;;
77598;SDS011;66758;52.078;5.070;2023-02-15T11:19:08;41.67;;;22.40;;
77598;SDS011;66758;52.078;5.070;2023-02-15T11:21:43;44.88;;;24.05;;
77598;SDS011;66758;52.078;5.070;2023-02-15T11:24:13;39.83;;;23.87;;
77598;SDS011;66758;52.078;5.070;2023-02-15T11:29:43;41.60;;;22.10;;
77598;SDS011;66758;52.078;5.070;2023-02-15T11:32:39;40.42;;;22.92;;
77598;SDS011;66758;52.078;5.070;2023-02-15T11:37:40;42.67;;;24.23;;
77598;SDS011;66758;52.078;5.070;2023-02-15T11:40:30;44.10;;;24.83;;
77598;SDS011;66758;52.078;5.070;2023-02-15T11:43:04;42.47;;;24.02;;
77598;SDS011;66758;52.078;5.070;2023-02-15T11:45:44;42.15;;;25.10;;
77598;SDS011;66758;52.078;5.070;2023-02-15T11:48:14;38.63;;;22.83;;
77598;SDS011;66758;52.078;5.070;2023-02-15T11:50:41;43.83;;;24.67;;
77598;SDS011;66758;52.078;5.070;2023-02-15T11:53:18;40.42;;;24.40;;
77598;SDS011;66758;52.078;5.070;2023-02-15T11:55:47;41.67;;;26.05;;
77598;SDS011;66758;52.078;5.070;2023-02-15T12:01:28;43.10;;;24.52;;
77598;SDS011;66758;52.078;5.070;2023-02-15T12:03:57;46.13;;;25.67;;
77598;SDS011;66758;52.078;5.070;2023-02-15T12:06:27;47.53;;;25.92;;
77598;SDS011;66758;52.078;5.070;2023-02-15T12:11:44;44.70;;;24.58;;
77598;SDS011;66758;52.078;5.070;2023-02-15T12:14:12;50.50;;;26.30;;
77598;SDS011;66758;52.078;5.070;2023-02-15T12:16:46;44.88;;;25.98;;
77598;SDS011;66758;52.078;5.070;2023-02-15T12:22:24;46.45;;;25.52;;
77598;SDS011;66758;52.078;5.070;2023-02-15T12:24:54;41.47;;;23.87;;
77598;SDS011;66758;52.078;5.070;2023-02-15T12:27:23;52.47;;;27.05;;
77598;SDS011;66758;52.078;5.070;2023-02-15T12:29:59;48.38;;;26.23;;
77598;SDS011;66758;52.078;5.070;2023-02-15T12:32:46;47.28;;;26.08;;
77598;SDS011;66758;52.078;5.070;2023-02-15T12:35:16;50.10;;;26.60;;
77598;SDS011;66758;52.078;5.070;2023-02-15T12:38:00;46.27;;;25.37;;
77598;SDS011;66758;52.078;5.070;2023-02-15T12:40:29;45.40;;;25.15;;
77598;SDS011;66758;52.078;5.070;2023-02-15T12:42:55;48.70;;;25.70;;
77598;SDS011;66758;52.078;5.070;2023-02-15T12:45:24;47.60;;;25.83;;
77598;SDS011;66758;52.078;5.070;2023-02-15T12:50:45;45.63;;;24.87;;
77598;SDS011;66758;52.078;5.070;2023-02-15T12:53:22;46.10;;;24.58;;
77598;SDS011;66758;52.078;5.070;2023-02-15T12:56:00;45.53;;;23.67;;
77598;SDS011;66758;52.078;5.070;2023-02-15T12:58:31;42.50;;;24.90;;
77598;SDS011;66758;52.078;5.070;2023-02-15T13:01:10;50.50;;;25.48;;
77598;SDS011;66758;52.078;5.070;2023-02-15T13:06:45;44.88;;;24.13;;
77598;SDS011;66758;52.078;5.070;2023-02-15T13:09:18;48.65;;;27.20;;
77598;SDS011;66758;52.078;5.070;2023-02-15T13:11:48;45.33;;;25.77;;
77598;SDS011;66758;52.078;5.070;2023-02-15T13:16:46;44.65;;;25.50;;
77598;SDS011;66758;52.078;5.070;2023-02-15T13:22:18;45.22;;;26.70;;
77598;SDS011;66758;52.078;5.070;2023-02-15T13:24:48;51.05;;;26.58;;
77598;SDS011;66758;52.078;5.070;2023-02-15T13:27:19;45.07;;;27.37;;
77598;SDS011;66758;52.078;5.070;2023-02-15T13:29:51;42.30;;;25.17;;
77598;SDS011;66758;52.078;5.070;2023-02-15T13:32:34;50.08;;;27.20;;
77598;SDS011;66758;52.078;5.070;2023-02-15T13:35:03;44.88;;;25.90;;
77598;SDS011;66758;52.078;5.070;2023-02-15T13:40:31;51.27;;;26.67;;
77598;SDS011;66758;52.078;5.070;2023-02-15T13:52:13;44.72;;;24.73;;
77598;SDS011;66758;52.078;5.070;2023-02-15T14:02:35;48.22;;;26.05;;
77598;SDS011;66758;52.078;5.070;2023-02-15T14:10:40;43.85;;;24.77;;
77598;SDS011;66758;52.078;5.070;2023-02-15T14:18:55;48.28;;;25.50;;
77598;SDS011;66758;52.078;5.070;2023-02-15T14:21:34;42.30;;;24.37;;
77598;SDS011;66758;52.078;5.070;2023-02-15T14:29:41;42.70;;;25.17;;
77598;SDS011;66758;52.078;5.070;2023-02-15T14:35:17;47.90;;;26.97;;
77598;SDS011;66758;52.078;5.070;2023-02-15T14:49:28;47.53;;;25.53;;
77598;SDS011;66758;52.078;5.070;2023-02-15T14:51:58;48.47;;;25.65;;
77598;SDS011;66758;52.078;5.070;2023-02-15T14:57:37;52.03;;;27.77;;
77598;SDS011;66758;52.078;5.070;2023-02-15T14:59:58;45.30;;;25.33;;
77598;SDS011;66758;52.078;5.070;2023-02-15T15:07:46;47.25;;;26.10;;
77598;SDS011;66758;52.078;5.070;2023-02-15T15:15:50;47.87;;;26.13;;
77598;SDS011;66758;52.078;5.070;2023-02-15T15:38:37;52.38;;;28.70;;
77598;SDS011;66758;52.078;5.070;2023-02-15T15:41:23;48.58;;;26.17;;
77598;SDS011;66758;52.078;5.070;2023-02-15T15:44:08;50.00;;;27.10;;
77598;SDS011;66758;52.078;5.070;2023-02-15T15:49:59;50.03;;;25.88;;
77598;SDS011;66758;52.078;5.070;2023-02-15T15:52:26;50.90;;;27.70;;
77598;SDS011;66758;52.078;5.070;2023-02-15T15:54:55;52.28;;;27.27;;
77598;SDS011;66758;52.078;5.070;2023-02-15T15:57:29;49.77;;;26.47;;
77598;SDS011;66758;52.078;5.070;2023-02-15T15:59:59;50.75;;;27.73;;
77598;SDS011;66758;52.078;5.070;2023-02-15T16:02:25;51.70;;;27.85;;
77598;SDS011;66758;52.078;5.070;2023-02-15T16:04:51;53.85;;;27.52;;
77598;SDS011;66758;52.078;5.070;2023-02-15T16:12:22;51.57;;;28.60;;
77598;SDS011;66758;52.078;5.070;2023-02-15T16:14:48;46.95;;;26.00;;
77598;SDS011;66758;52.078;5.070;2023-02-15T16:17:27;49.45;;;28.38;;
77598;SDS011;66758;52.078;5.070;2023-02-15T16:20:11;57.20;;;32.22;;
77598;SDS011;66758;52.078;5.070;2023-02-15T16:22:43;49.63;;;27.13;;
77598;SDS011;66758;52.078;5.070;2023-02-15T16:27:47;51.65;;;27.75;;
77598;SDS011;66758;52.078;5.070;2023-02-15T16:32:45;51.13;;;28.00;;
77598;SDS011;66758;52.078;5.070;2023-02-15T16:35:17;48.50;;;26.70;;
77598;SDS011;66758;52.078;5.070;2023-02-15T16:37:44;50.28;;;26.30;;
77598;SDS011;66758;52.078;5.070;2023-02-15T16:42:49;56.97;;;26.80;;
77598;SDS011;66758;52.078;5.070;2023-02-15T16:45:16;52.75;;;27.42;;
77598;SDS011;66758;52.078;5.070;2023-02-15T16:47:49;50.10;;;26.23;;
77598;SDS011;66758;52.078;5.070;2023-02-15T16:50:20;46.70;;;25.27;;
77598;SDS011;66758;52.078;5.070;2023-02-15T16:52:48;48.67;;;25.58;;
77598;SDS011;66758;52.078;5.070;2023-02-15T16:55:19;48.72;;;25.98;;
77598;SDS011;66758;52.078;5.070;2023-02-15T16:57:47;51.63;;;26.47;;
77598;SDS011;66758;52.078;5.070;2023-02-15T17:00:20;49.03;;;26.25;;
77598;SDS011;66758;52.078;5.070;2023-02-15T17:05:28;46.47;;;24.10;;
77598;SDS011;66758;52.078;5.070;2023-02-15T17:10:32;52.07;;;24.93;;
77598;SDS011;66758;52.078;5.070;2023-02-15T17:13:10;51.50;;;26.02;;
77598;SDS011;66758;52.078;5.070;2023-02-15T17:15:39;48.33;;;24.52;;
77598;SDS011;66758;52.078;5.070;2023-02-15T17:18:10;41.72;;;23.92;;
77598;SDS011;66758;52.078;5.070;2023-02-15T17:20:40;49.95;;;25.17;;
77598;SDS011;66758;52.078;5.070;2023-02-15T17:23:17;45.77;;;24.97;;
77598;SDS011;66758;52.078;5.070;2023-02-15T17:25:45;49.47;;;26.00;;
77598;SDS011;66758;52.078;5.070;2023-02-15T17:28:16;48.35;;;24.45;;
77598;SDS011;66758;52.078;5.070;2023-02-15T17:30:43;53.22;;;26.58;;
77598;SDS011;66758;52.078;5.070;2023-02-15T17:36:06;50.47;;;26.80;;
77598;SDS011;66758;52.078;5.070;2023-02-15T17:41:22;60.47;;;28.73;;
77598;SDS011;66758;52.078;5.070;2023-02-15T17:43:48;57.40;;;28.95;;
77598;SDS011;66758;52.078;5.070;2023-02-15T17:46:13;63.03;;;31.10;;
77598;SDS011;66758;52.078;5.070;2023-02-15T17:48:41;57.55;;;29.58;;
77598;SDS011;66758;52.078;5.070;2023-02-15T17:51:09;58.65;;;31.83;;
77598;SDS011;66758;52.078;5.070;2023-02-15T17:53:37;59.30;;;30.70;;
77598;SDS011;66758;52.078;5.070;2023-02-15T17:56:03;61.65;;;29.73;;
77598;SDS011;66758;52.078;5.070;2023-02-15T17:58:38;59.80;;;28.45;;
77598;SDS011;66758;52.078;5.070;2023-02-15T18:01:06;58.40;;;29.27;;
77598;SDS011;66758;52.078;5.070;2023-02-15T18:03:56;53.65;;;28.13;;
77598;SDS011;66758;52.078;5.070;2023-02-15T18:06:40;52.92;;;27.40;;
77598;SDS011;66758;52.078;5.070;2023-02-15T18:09:26;48.03;;;26.02;;
77598;SDS011;66758;52.078;5.070;2023-02-15T18:12:18;54.97;;;27.85;;
77598;SDS011;66758;52.078;5.070;2023-02-15T18:14:55;51.47;;;26.90;;
77598;SDS011;66758;52.078;5.070;2023-02-15T18:17:24;56.63;;;28.13;;
77598;SDS011;66758;52.078;5.070;2023-02-15T18:19:59;52.83;;;26.90;;
77598;SDS011;66758;52.078;5.070;2023-02-15T18:22:30;53.17;;;26.92;;
77598;SDS011;66758;52.078;5.070;2023-02-15T18:24:56;53.10;;;28.48;;
77598;SDS011;66758;52.078;5.070;2023-02-15T18:27:22;51.43;;;26.93;;
77598;SDS011;66758;52.078;5.070;2023-02-15T18:29:49;54.50;;;27.92;;
77598;SDS011;66758;52.078;5.070;2023-02-15T18:32:16;50.25;;;25.77;;